Time;durP1;ratioP1;P1;durP2;ratioP2;P2;SDS_P1;SDS_P2;PMS_P1;PMS_P2;Temp;Humidity;BMP_temperature;BMP_pressure;BME280_temperature;BME280_humidity;BME280_pressure;Samples;Min_cycle;Max_cycle;Signal;HPM_P1;HPM_P2
2023/04/21 00:02:05;;;;;;;18.00;15.10;;;6.30;99.90;;;;;;4988907;28;20195;-59
2023/04/21 00:04:31;;;;;;;18.02;16.10;;;6.20;99.90;;;;;;4987363;28;20206;-59
2023/04/21 00:07:00;;;;;;;16.77;14.98;;;6.40;99.90;;;;;;4990457;28;20657;-59
2023/04/21 00:09:26;;;;;;;16.38;14.52;;;6.50;99.90;;;;;;4985876;28;20269;-59
2023/04/21 00:11:52;;;;;;;19.42;16.67;;;6.20;99.90;;;;;;4969894;28;20632;-59
2023/04/21 00:14:17;;;;;;;16.53;14.83;;;6.30;99.90;;;;;;4991301;28;20314;-59
2023/04/21 00:16:43;;;;;;;16.70;14.67;;;6.30;99.90;;;;;;4988409;28;20549;-59
2023/04/21 00:19:09;;;;;;;19.73;15.57;;;6.30;99.90;;;;;;4986932;28;20257;-59
2023/04/21 00:21:35;;;;;;;20.33;16.63;;;6.20;99.90;;;;;;4988165;28;20195;-59
2023/04/21 00:24:00;;;;;;;18.17;15.17;;;6.10;99.90;;;;;;4987022;28;20208;-59
2023/04/21 00:26:26;;;;;;;17.67;15.30;;;6.30;99.90;;;;;;4989118;28;20496;-59
2023/04/21 00:28:51;;;;;;;18.87;16.60;;;6.20;99.90;;;;;;4987256;28;20279;-60
2023/04/21 00:31:17;;;;;;;17.97;15.90;;;6.20;99.90;;;;;;4987175;28;20191;-59
2023/04/21 00:33:42;;;;;;;20.77;17.30;;;6.30;99.90;;;;;;4987511;28;20290;-59
2023/04/21 00:36:08;;;;;;;19.50;15.93;;;6.20;99.90;;;;;;4990335;28;20207;-58
2023/04/21 00:38:34;;;;;;;18.80;16.20;;;6.20;99.90;;;;;;4984899;28;20188;-58
2023/04/21 00:40:59;;;;;;;19.77;15.73;;;6.20;99.90;;;;;;4986653;28;20201;-59
2023/04/21 00:43:25;;;;;;;21.53;16.53;;;6.00;99.90;;;;;;4987174;28;20215;-59
2023/04/21 00:45:51;;;;;;;20.10;15.97;;;6.40;99.90;;;;;;4988302;28;20561;-59
2023/04/21 00:48:16;;;;;;;17.07;15.00;;;6.20;99.90;;;;;;4988012;28;20230;-59
2023/04/21 00:50:43;;;;;;;18.30;15.13;;;6.20;99.90;;;;;;4989465;28;20183;-58
2023/04/21 00:53:10;;;;;;;16.70;14.70;;;6.10;99.90;;;;;;4989892;28;20199;-59
2023/04/21 00:55:36;;;;;;;19.05;15.98;;;6.20;99.90;;;;;;4970629;28;20184;-58
2023/04/21 00:58:02;;;;;;;18.73;16.13;;;6.60;99.90;;;;;;4990334;28;20194;-59
2023/04/21 01:00:28;;;;;;;18.88;14.70;;;5.70;99.90;;;;;;4987759;28;20457;-58
2023/04/21 01:02:54;;;;;;;18.95;15.43;;;6.20;99.90;;;;;;4988120;28;20207;-59
2023/04/21 01:05:20;;;;;;;20.52;16.73;;;6.20;99.90;;;;;;4986030;28;20271;-58
2023/04/21 01:07:46;;;;;;;19.80;15.70;;;6.10;99.90;;;;;;4986549;28;20341;-59
2023/04/21 01:10:12;;;;;;;18.17;15.73;;;6.20;99.90;;;;;;4985325;28;20474;-59
2023/04/21 01:12:43;;;;;;;18.37;16.00;;;6.20;99.90;;;;;;4984888;28;20200;-59
2023/04/21 01:15:09;;;;;;;17.50;15.70;;;6.20;99.90;;;;;;4985244;28;20567;-59
2023/04/21 01:17:37;;;;;;;18.67;15.05;;;6.10;99.90;;;;;;4989704;28;20202;-59
2023/04/21 01:20:08;;;;;;;17.90;16.00;;;6.20;99.90;;;;;;4988841;28;20186;-59
2023/04/21 01:22:36;;;;;;;21.50;17.15;;;5.80;99.90;;;;;;4989229;28;20621;-59
2023/04/21 01:25:02;;;;;;;19.45;16.70;;;5.90;99.90;;;;;;4986883;28;20225;-59
2023/04/21 01:27:28;;;;;;;19.87;16.30;;;5.90;99.90;;;;;;4988013;28;20235;-59
2023/04/21 01:29:54;;;;;;;22.03;17.70;;;5.90;99.90;;;;;;4987458;28;21054;-59
2023/04/21 01:32:23;;;;;;;20.63;16.90;;;5.90;99.90;;;;;;4986143;28;20481;-58
2023/04/21 01:34:49;;;;;;;22.75;17.02;;;5.90;99.90;;;;;;4988706;28;20233;-59
2023/04/21 01:37:17;;;;;;;19.13;15.13;;;6.30;99.90;;;;;;4986685;28;20187;-58
2023/04/21 01:39:46;;;;;;;20.98;16.70;;;5.90;99.90;;;;;;4982108;28;20231;-59
2023/04/21 01:42:13;;;;;;;19.10;15.95;;;5.70;99.90;;;;;;4989035;28;20199;-58
2023/04/21 01:44:39;;;;;;;20.35;15.88;;;6.00;99.90;;;;;;4988681;28;20671;-59
2023/04/21 01:47:05;;;;;;;19.40;16.38;;;6.00;99.90;;;;;;4985168;28;20683;-59
2023/04/21 01:49:31;;;;;;;21.30;16.85;;;5.70;99.90;;;;;;4988680;28;20587;-59
2023/04/21 01:51:57;;;;;;;21.77;16.00;;;5.70;99.90;;;;;;4989217;28;20187;-59
2023/04/21 01:54:22;;;;;;;21.50;17.70;;;5.80;99.90;;;;;;4967825;28;20493;-59
2023/04/21 01:56:48;;;;;;;19.87;17.10;;;5.60;99.90;;;;;;4989995;28;20703;-59
2023/04/21 01:59:14;;;;;;;21.93;17.63;;;5.60;99.90;;;;;;4989320;28;20550;-59
2023/04/21 02:01:39;;;;;;;21.27;16.40;;;5.50;99.90;;;;;;4984856;28;20278;-59
2023/04/21 02:04:05;;;;;;;20.37;17.07;;;5.40;99.90;;;;;;4985872;28;20287;-59
2023/04/21 02:06:30;;;;;;;21.23;17.70;;;5.30;99.90;;;;;;4987364;28;20570;-60
2023/04/21 02:08:57;;;;;;;22.47;18.10;;;5.40;99.90;;;;;;4985336;28;20215;-59
2023/04/21 02:11:24;;;;;;;21.25;17.40;;;5.50;99.90;;;;;;4984669;28;20523;-59
2023/04/21 02:13:53;;;;;;;22.50;17.45;;;5.50;99.90;;;;;;4983839;28;20207;-59
2023/04/21 02:16:19;;;;;;;24.05;18.50;;;5.60;99.90;;;;;;4985504;28;20258;-59
2023/04/21 02:18:46;;;;;;;23.13;18.23;;;5.70;99.90;;;;;;4971406;28;20525;-58
2023/04/21 02:21:11;;;;;;;20.80;17.52;;;5.50;99.90;;;;;;4983289;28;20979;-59
2023/04/21 02:23:37;;;;;;;21.60;17.40;;;5.50;99.90;;;;;;4983826;28;20219;-59
2023/04/21 02:26:02;;;;;;;20.67;18.00;;;6.00;99.90;;;;;;4985743;28;20473;-60
2023/04/21 02:28:28;;;;;;;20.50;16.83;;;5.70;99.90;;;;;;4986982;28;20695;-59
2023/04/21 02:30:54;;;;;;;20.63;17.10;;;5.80;99.90;;;;;;4984094;28;20653;-60
2023/04/21 02:33:19;;;;;;;21.07;16.43;;;5.70;99.90;;;;;;4988257;28;20747;-60
2023/04/21 02:35:45;;;;;;;19.00;16.80;;;5.70;99.90;;;;;;4988829;28;20194;-60
2023/04/21 02:38:11;;;;;;;19.00;15.97;;;5.40;99.90;;;;;;4984609;28;20195;-60
2023/04/21 02:40:36;;;;;;;21.30;16.87;;;5.50;99.90;;;;;;4988345;28;20442;-60
2023/04/21 02:43:02;;;;;;;18.20;14.47;;;5.80;99.90;;;;;;4986006;28;20202;-59
2023/04/21 02:45:28;;;;;;;18.77;15.37;;;5.30;99.90;;;;;;4984552;28;20274;-60
2023/04/21 02:47:53;;;;;;;21.33;15.63;;;5.30;99.90;;;;;;4986220;28;20499;-59
2023/04/21 02:50:19;;;;;;;21.27;17.33;;;5.10;99.90;;;;;;4988133;28;20215;-59
2023/04/21 02:52:45;;;;;;;22.77;17.87;;;5.20;99.90;;;;;;4987654;28;20269;-60
2023/04/21 02:55:10;;;;;;;22.87;17.40;;;5.70;99.90;;;;;;4980208;28;20620;-59
2023/04/21 02:57:36;;;;;;;23.03;16.97;;;4.90;99.90;;;;;;4986353;28;20261;-59
2023/04/21 03:00:03;;;;;;;19.47;16.30;;;4.70;99.90;;;;;;4983118;28;20528;-59
2023/04/21 03:02:29;;;;;;;22.67;17.05;;;5.00;99.90;;;;;;4987125;28;20269;-60
2023/04/21 03:04:55;;;;;;;23.05;17.27;;;4.90;99.90;;;;;;4985288;28;20201;-60
2023/04/21 03:07:21;;;;;;;20.60;16.70;;;5.10;99.90;;;;;;4987314;28;20200;-59
2023/04/21 03:09:46;;;;;;;20.07;15.97;;;5.20;99.90;;;;;;4984400;28;20248;-59
2023/04/21 03:12:12;;;;;;;20.17;16.33;;;5.30;99.90;;;;;;4985526;28;20196;-59
2023/04/21 03:14:37;;;;;;;23.43;18.00;;;5.30;99.90;;;;;;4990415;28;20182;-59
2023/04/21 03:17:03;;;;;;;21.37;17.40;;;5.20;99.90;;;;;;4991985;28;20689;-60
2023/04/21 03:19:30;;;;;;;20.97;17.67;;;4.80;99.90;;;;;;4990701;28;20230;-59
2023/04/21 03:21:55;;;;;;;21.55;16.85;;;5.20;99.90;;;;;;4993590;28;20265;-59
2023/04/21 03:24:21;;;;;;;20.70;16.77;;;4.90;99.90;;;;;;4987969;28;20567;-59
2023/04/21 03:26:47;;;;;;;23.95;17.58;;;4.80;99.90;;;;;;4992374;28;20237;-60
2023/04/21 03:29:13;;;;;;;20.07;16.43;;;4.80;99.90;;;;;;4992668;28;20209;-60
2023/04/21 03:31:38;;;;;;;20.03;16.30;;;4.90;99.90;;;;;;4992203;28;20205;-59
2023/04/21 03:34:04;;;;;;;21.43;17.10;;;4.70;99.90;;;;;;4991643;28;20293;-60
2023/04/21 03:36:30;;;;;;;21.97;16.80;;;5.10;99.90;;;;;;4993042;28;20201;-60
2023/04/21 03:38:57;;;;;;;20.35;16.10;;;5.10;99.90;;;;;;4990860;28;20725;-60
2023/04/21 03:41:23;;;;;;;22.33;17.67;;;5.30;99.90;;;;;;4990810;28;20673;-60
2023/04/21 03:43:51;;;;;;;21.23;16.73;;;5.20;99.90;;;;;;4993679;28;20209;-60
2023/04/21 03:46:21;;;;;;;22.15;17.63;;;5.00;99.90;;;;;;4991088;28;20195;-60
2023/04/21 03:48:47;;;;;;;21.88;16.92;;;5.30;99.90;;;;;;4990751;28;20251;-60
2023/04/21 03:51:13;;;;;;;20.80;16.47;;;4.50;99.90;;;;;;4993799;28;20200;-60
2023/04/21 03:53:39;;;;;;;22.75;17.00;;;5.00;99.90;;;;;;4983654;28;20488;-60
2023/04/21 03:56:05;;;;;;;20.58;16.33;;;5.00;99.90;;;;;;4992763;28;20178;-59
2023/04/21 03:58:31;;;;;;;20.70;16.23;;;4.90;99.90;;;;;;4991575;28;20599;-59
2023/04/21 04:00:56;;;;;;;22.90;17.40;;;5.00;99.90;;;;;;4967887;28;20274;-60
2023/04/21 04:03:23;;;;;;;20.30;15.57;;;4.90;99.90;;;;;;4992941;28;20483;-60
2023/04/21 04:05:49;;;;;;;20.30;16.90;;;5.20;99.90;;;;;;4987600;28;20278;-60
2023/04/21 04:08:14;;;;;;;22.10;18.07;;;5.50;99.90;;;;;;4973246;28;20559;-60
2023/04/21 04:10:40;;;;;;;19.50;16.10;;;5.00;99.90;;;;;;4988860;28;20664;-59
2023/04/21 04:13:05;;;;;;;19.57;16.03;;;5.50;99.90;;;;;;4993276;28;20215;-59
2023/04/21 04:15:31;;;;;;;19.60;15.43;;;5.20;99.90;;;;;;4991904;28;20197;-60
2023/04/21 04:17:56;;;;;;;18.53;16.53;;;5.20;99.90;;;;;;4993854;28;20604;-60
2023/04/21 04:20:22;;;;;;;17.13;15.00;;;4.80;99.90;;;;;;4992053;28;20217;-60
2023/04/21 04:22:48;;;;;;;19.93;15.87;;;5.00;99.90;;;;;;4984077;28;22033;-60
2023/04/21 04:25:15;;;;;;;21.10;16.63;;;5.20;99.90;;;;;;4972478;28;20745;-60
2023/04/21 04:27:44;;;;;;;19.58;15.40;;;4.90;99.90;;;;;;4987268;28;20194;-60
2023/04/21 04:30:12;;;;;;;20.08;16.88;;;5.00;99.90;;;;;;4985028;28;20551;-59
2023/04/21 04:32:38;;;;;;;19.05;15.70;;;5.00;99.90;;;;;;4986498;28;20204;-59
2023/04/21 04:35:08;;;;;;;20.80;16.77;;;5.10;99.90;;;;;;4988274;28;20711;-60
2023/04/21 04:37:35;;;;;;;18.83;15.25;;;4.60;99.90;;;;;;4989532;28;20795;-60
2023/04/21 04:40:04;;;;;;;18.27;14.90;;;4.90;99.90;;;;;;4987223;28;20547;-60
2023/04/21 04:42:29;;;;;;;18.52;15.75;;;5.10;99.90;;;;;;4988567;28;20313;-59
2023/04/21 04:44:56;;;;;;;18.80;15.27;;;4.90;99.90;;;;;;4988426;28;20656;-59
2023/04/21 04:47:21;;;;;;;19.30;15.23;;;5.20;99.90;;;;;;4971860;28;20668;-59
2023/04/21 04:49:47;;;;;;;21.30;16.20;;;4.70;99.90;;;;;;4985328;28;20221;-59
2023/04/21 04:52:13;;;;;;;20.00;15.77;;;5.50;99.90;;;;;;4987927;28;20445;-59
2023/04/21 04:54:38;;;;;;;18.87;15.70;;;5.50;99.90;;;;;;4982767;28;20191;-59
2023/04/21 04:57:04;;;;;;;17.47;13.83;;;5.30;99.90;;;;;;4984124;28;20195;-59
2023/04/21 04:59:30;;;;;;;19.47;15.40;;;5.10;99.90;;;;;;4988660;28;20238;-59
2023/04/21 05:01:56;;;;;;;19.30;14.68;;;5.20;99.90;;;;;;4989171;28;20193;-59
2023/04/21 05:04:22;;;;;;;19.45;15.45;;;5.30;99.90;;;;;;4985635;28;20654;-60
2023/04/21 05:06:48;;;;;;;18.92;15.88;;;5.50;99.90;;;;;;4991765;28;20215;-58
2023/04/21 05:09:14;;;;;;;18.45;15.30;;;5.70;99.90;;;;;;4985556;28;20787;-59
2023/04/21 05:11:40;;;;;;;21.10;15.80;;;5.70;99.90;;;;;;4980693;28;20233;-59
2023/04/21 05:14:05;;;;;;;20.30;16.60;;;4.90;99.90;;;;;;4982598;28;21149;-59
2023/04/21 05:16:33;;;;;;;21.87;16.13;;;5.60;99.90;;;;;;4987122;28;20248;-59
2023/04/21 05:19:01;;;;;;;23.05;17.10;;;5.80;99.90;;;;;;4988544;28;20457;-60
2023/04/21 05:21:27;;;;;;;21.15;17.00;;;5.50;99.90;;;;;;4987362;28;20504;-61
2023/04/21 05:23:56;;;;;;;21.55;15.85;;;5.50;99.90;;;;;;4986263;28;20208;-61
2023/04/21 05:26:23;;;;;;;22.60;16.10;;;6.00;99.90;;;;;;4984293;28;20203;-58
2023/04/21 05:28:48;;;;;;;19.58;15.10;;;5.70;99.90;;;;;;4984485;28;20219;-59
2023/04/21 05:31:14;;;;;;;26.00;16.50;;;6.10;99.90;;;;;;4970569;28;20552;-58
2023/04/21 05:33:40;;;;;;;20.50;16.80;;;6.00;99.90;;;;;;4983286;28;20235;-58
2023/04/21 05:36:09;;;;;;;23.50;16.47;;;6.10;99.90;;;;;;4984780;28;20191;-61
2023/04/21 05:38:35;;;;;;;20.40;15.30;;;6.20;99.90;;;;;;4967760;28;20595;-57
2023/04/21 05:41:01;;;;;;;19.80;15.20;;;6.60;99.90;;;;;;4986576;28;20211;-58
2023/04/21 05:43:27;;;;;;;19.27;15.35;;;6.40;99.90;;;;;;4986095;28;20470;-57
2023/04/21 05:45:53;;;;;;;19.97;15.50;;;6.40;99.90;;;;;;4985014;28;20223;-58
2023/04/21 05:48:18;;;;;;;19.00;15.50;;;6.90;99.90;;;;;;4988387;28;20195;-58
2023/04/21 05:50:44;;;;;;;21.20;16.80;;;6.60;99.90;;;;;;4989717;28;20192;-59
2023/04/21 05:53:09;;;;;;;18.83;14.73;;;6.60;99.90;;;;;;4988311;28;20257;-58
2023/04/21 05:55:36;;;;;;;19.57;15.37;;;6.80;99.90;;;;;;4986432;28;20234;-58
2023/04/21 05:58:02;;;;;;;19.00;15.10;;;6.80;99.90;;;;;;4987720;28;20192;-58
2023/04/21 06:00:29;;;;;;;19.05;15.95;;;7.10;99.90;;;;;;4988283;28;20180;-58
2023/04/21 06:02:54;;;;;;;20.15;16.55;;;6.80;99.90;;;;;;4987855;28;20707;-58
2023/04/21 06:05:20;;;;;;;20.87;17.43;;;7.20;99.90;;;;;;4983698;28;20275;-58
2023/04/21 06:07:45;;;;;;;22.73;17.33;;;7.40;99.90;;;;;;4989732;28;20196;-58
2023/04/21 06:10:12;;;;;;;20.17;15.90;;;7.60;99.90;;;;;;4985564;28;20251;-59
2023/04/21 06:12:38;;;;;;;18.15;15.35;;;7.80;99.90;;;;;;4986060;28;20203;-58
2023/04/21 06:15:04;;;;;;;22.87;17.17;;;8.20;99.90;;;;;;4985465;28;20204;-58
2023/04/21 06:17:30;;;;;;;20.10;15.95;;;8.00;99.90;;;;;;4990410;28;20187;-58
2023/04/21 06:19:55;;;;;;;25.90;20.83;;;8.20;99.90;;;;;;4987760;28;20562;-58
2023/04/21 06:22:22;;;;;;;19.23;15.40;;;8.60;99.90;;;;;;4988750;28;20227;-59
2023/04/21 06:24:47;;;;;;;20.52;15.88;;;8.60;99.90;;;;;;4986011;28;20608;-60
2023/04/21 06:27:13;;;;;;;22.00;17.10;;;8.70;99.90;;;;;;4984275;28;20282;-58
2023/04/21 06:29:41;;;;;;;18.50;15.33;;;8.60;99.90;;;;;;4987346;28;20207;-58
2023/04/21 06:32:07;;;;;;;20.65;16.70;;;8.90;99.90;;;;;;4984711;28;20424;-57
2023/04/21 06:34:32;;;;;;;20.10;16.60;;;9.40;99.90;;;;;;4989859;28;20184;-58
2023/04/21 06:36:58;;;;;;;18.87;15.90;;;9.30;99.90;;;;;;4988014;28;20200;-59
2023/04/21 06:39:24;;;;;;;20.10;15.63;;;9.50;99.90;;;;;;4986507;28;20191;-58
2023/04/21 06:41:49;;;;;;;23.67;17.30;;;9.30;99.90;;;;;;4979371;28;20643;-58
2023/04/21 06:44:15;;;;;;;18.37;16.27;;;9.20;99.90;;;;;;4987614;28;20211;-58
2023/04/21 06:46:41;;;;;;;19.40;15.63;;;9.10;99.90;;;;;;4986791;28;20254;-59
2023/04/21 06:49:07;;;;;;;19.80;16.60;;;9.70;99.90;;;;;;4987462;28;20613;-58
2023/04/21 06:51:32;;;;;;;20.88;16.83;;;9.30;99.90;;;;;;4982740;28;20332;-59
2023/04/21 06:53:58;;;;;;;20.10;16.33;;;9.40;99.90;;;;;;4984630;28;20235;-58
2023/04/21 06:56:26;;;;;;;22.40;16.00;;;9.30;99.90;;;;;;4981565;28;20189;-58
2023/04/21 06:58:52;;;;;;;19.75;15.90;;;9.30;99.90;;;;;;4984288;28;20192;-63
2023/04/21 07:01:18;;;;;;;23.00;16.60;;;9.00;99.90;;;;;;4973145;28;20927;-69
2023/04/21 07:03:43;;;;;;;19.90;16.70;;;9.50;99.90;;;;;;4983409;28;20437;-69
2023/04/21 07:06:09;;;;;;;20.27;15.57;;;9.10;99.90;;;;;;4983646;28;20703;-68
2023/04/21 07:08:35;;;;;;;21.67;18.07;;;9.50;99.90;;;;;;4981688;28;21029;-70
2023/04/21 07:11:01;;;;;;;25.60;15.07;;;9.70;99.90;;;;;;4983945;28;20454;-70
2023/04/21 07:13:27;;;;;;;18.47;15.17;;;10.70;99.90;;;;;;4985601;28;21020;-72
2023/04/21 07:15:52;;;;;;;18.47;15.20;;;12.10;99.90;;;;;;4976969;28;20444;-68
2023/04/21 07:18:18;;;;;;;16.90;13.90;;;13.20;99.90;;;;;;5021899;22;20244;-82
2023/04/21 07:20:44;;;;;;;18.17;15.10;;;14.10;99.90;;;;;;5005587;28;20206;-81
2023/04/21 07:23:10;;;;;;;16.30;14.60;;;14.50;99.90;;;;;;5009054;28;20227;-82
2023/04/21 07:25:35;;;;;;;18.70;15.53;;;15.50;97.30;;;;;;5006587;28;20235;-83
2023/04/21 07:28:02;;;;;;;17.87;16.00;;;16.20;94.80;;;;;;4997397;28;20226;-82
2023/04/21 07:30:28;;;;;;;16.40;14.82;;;15.80;93.70;;;;;;4987909;28;20215;-83
2023/04/21 07:32:54;;;;;;;16.83;14.70;;;16.00;93.40;;;;;;4993027;28;20230;-83
2023/04/21 07:35:21;;;;;;;16.17;14.60;;;16.50;92.60;;;;;;4993414;28;20184;-81
2023/04/21 07:37:46;;;;;;;17.40;14.52;;;15.70;92.80;;;;;;4993741;28;20510;-82
2023/04/21 07:40:12;;;;;;;17.67;15.87;;;15.80;94.00;;;;;;5001169;28;20204;-80
2023/04/21 07:42:38;;;;;;;16.90;15.17;;;15.00;94.20;;;;;;4982431;28;20273;-82
2023/04/21 07:45:04;;;;;;;17.33;15.53;;;16.10;94.70;;;;;;4988883;28;20211;-82
2023/04/21 07:47:30;;;;;;;16.50;14.80;;;15.70;92.80;;;;;;5003499;28;20478;-83
2023/04/21 07:49:56;;;;;;;16.02;14.10;;;16.20;93.00;;;;;;4989964;28;20214;-81
2023/04/21 07:52:22;;;;;;;17.00;15.07;;;15.50;92.60;;;;;;4983170;28;20211;-80
2023/04/21 07:54:47;;;;;;;14.97;13.37;;;14.80;94.60;;;;;;4974573;28;20464;-81
2023/04/21 07:57:13;;;;;;;16.40;14.60;;;15.70;94.50;;;;;;4974261;28;20512;-83
2023/04/21 07:59:39;;;;;;;14.43;13.13;;;15.90;94.00;;;;;;4972520;28;20242;-81
2023/04/21 08:02:04;;;;;;;14.60;13.20;;;17.10;92.10;;;;;;4974938;28;20239;-81
2023/04/21 08:04:30;;;;;;;13.50;12.20;;;18.10;90.30;;;;;;4981644;28;20188;-81
2023/04/21 08:06:56;;;;;;;13.83;12.53;;;19.60;87.90;;;;;;4998470;28;20279;-81
2023/04/21 08:09:21;;;;;;;13.57;12.23;;;20.30;83.90;;;;;;4983106;28;20668;-81
2023/04/21 08:11:47;;;;;;;13.63;12.27;;;22.80;77.50;;;;;;4985108;28;20207;-82
2023/04/21 08:14:12;;;;;;;14.40;13.00;;;21.90;72.80;;;;;;4984180;28;20602;-82
2023/04/21 08:16:39;;;;;;;11.40;10.40;;;20.80;75.70;;;;;;4977131;28;20185;-81
2023/04/21 08:19:06;;;;;;;13.33;12.13;;;20.60;77.90;;;;;;4981558;28;20196;-81
2023/04/21 08:21:32;;;;;;;12.47;11.27;;;22.80;75.90;;;;;;4986152;28;20469;-86
2023/04/21 08:23:58;;;;;;;12.00;11.00;;;23.20;71.50;;;;;;4974064;28;20459;-82
2023/04/21 08:26:24;;;;;;;10.47;9.57;;;23.20;67.10;;;;;;4981451;28;20459;-85
2023/04/21 08:28:51;;;;;;;10.93;9.93;;;25.00;65.80;;;;;;4976991;28;20206;-87
2023/04/21 08:31:18;;;;;;;11.50;10.40;;;25.40;61.10;;;;;;4971078;28;20474;-86
2023/04/21 08:33:43;;;;;;;11.53;10.50;;;26.20;58.20;;;;;;4973909;28;20527;-86
2023/04/21 08:36:10;;;;;;;12.00;10.80;;;26.00;58.20;;;;;;4980189;28;20916;-83
2023/04/21 08:38:38;;;;;;;10.63;9.73;;;26.40;58.20;;;;;;4986895;28;20458;-84
2023/04/21 08:41:04;;;;;;;11.53;10.53;;;25.90;57.40;;;;;;4978720;28;20463;-84
2023/04/21 08:43:30;;;;;;;13.30;12.10;;;25.80;57.90;;;;;;4983519;28;20457;-84
2023/04/21 08:45:56;;;;;;;13.10;11.87;;;25.90;59.10;;;;;;4983976;28;21002;-84
2023/04/21 08:48:23;;;;;;;12.47;11.17;;;25.40;57.50;;;;;;4991690;28;20531;-85
2023/04/21 08:50:50;;;;;;;12.80;11.60;;;25.80;57.90;;;;;;4970618;28;20451;-86
2023/04/21 08:53:19;;;;;;;11.67;10.30;;;27.00;56.00;;;;;;4972756;28;20446;-86
2023/04/21 08:55:48;;;;;;;12.23;11.23;;;26.80;54.20;;;;;;4978407;28;20458;-81
2023/04/21 08:58:14;;;;;;;11.63;10.73;;;26.80;54.80;;;;;;4997261;28;20810;-82
2023/04/21 09:00:40;;;;;;;10.93;10.03;;;26.10;54.80;;;;;;4993838;28;20455;-82
2023/04/21 09:03:07;;;;;;;11.77;10.77;;;26.10;54.60;;;;;;4992923;28;20179;-85
2023/04/21 09:05:33;;;;;;;11.43;10.50;;;27.10;54.60;;;;;;4976553;28;20445;-86
2023/04/21 09:08:17;;;;;;;11.20;10.30;;;26.80;54.60;;;;;;4975474;28;20873;-86
2023/04/21 09:10:48;;;;;;;12.40;11.20;;;26.50;55.00;;;;;;4975341;28;20483;-83
2023/04/21 09:13:16;;;;;;;11.17;10.17;;;26.90;54.20;;;;;;4976528;28;20529;-85
2023/04/21 09:15:48;;;;;;;14.77;12.10;;;27.20;54.10;;;;;;4974690;28;20438;-87
2023/04/21 09:18:19;;;;;;;11.60;10.50;;;25.90;53.50;;;;;;4970048;28;20463;-86
2023/04/21 09:20:46;;;;;;;10.00;9.10;;;25.60;55.70;;;;;;4973310;28;20450;-86
2023/04/21 09:23:12;;;;;;;10.37;9.47;;;25.50;55.30;;;;;;4978909;28;20454;-83
2023/04/21 09:25:39;;;;;;;10.73;9.80;;;25.30;56.40;;;;;;4977176;28;20451;-84
2023/04/21 09:28:09;;;;;;;10.83;9.93;;;24.40;57.00;;;;;;4971858;28;20452;-85
2023/04/21 09:30:36;;;;;;;10.03;9.13;;;24.70;57.40;;;;;;4979777;28;20479;-82
2023/04/21 09:33:02;;;;;;;12.30;11.20;;;23.90;59.40;;;;;;4975662;28;20956;-85
2023/04/21 09:35:28;;;;;;;10.10;9.23;;;23.00;59.40;;;;;;4990189;28;20457;-84
2023/04/21 09:37:55;;;;;;;12.40;9.87;;;21.50;62.60;;;;;;4972210;28;20184;-85
2023/04/21 09:40:21;;;;;;;10.17;9.30;;;21.90;65.10;;;;;;4972810;28;20488;-84
2023/04/21 09:42:46;;;;;;;11.27;9.70;;;22.10;63.40;;;;;;4977665;28;20486;-86
2023/04/21 09:45:13;;;;;;;9.10;8.30;;;21.80;63.40;;;;;;4981057;28;20656;-84
2023/04/21 09:47:40;;;;;;;8.57;7.67;;;21.80;65.70;;;;;;4993584;28;20212;-85
2023/04/21 09:50:08;;;;;;;8.30;7.60;;;22.10;64.80;;;;;;4971006;28;20480;-85
2023/04/21 09:52:36;;;;;;;8.07;7.37;;;21.30;64.60;;;;;;4992854;28;20462;-85
2023/04/21 09:55:05;;;;;;;7.43;6.73;;;21.90;64.10;;;;;;4989246;28;20432;-84
2023/04/21 09:57:31;;;;;;;6.77;6.20;;;21.90;63.60;;;;;;4989724;28;20435;-86
2023/04/21 10:00:04;;;;;;;6.93;6.33;;;22.00;63.50;;;;;;4975393;28;20533;-84
2023/04/21 10:02:30;;;;;;;7.77;7.07;;;22.70;62.10;;;;;;5005201;28;20494;-84
2023/04/21 10:04:56;;;;;;;9.03;8.23;;;22.30;60.70;;;;;;4977906;28;20446;-87
2023/04/21 10:07:22;;;;;;;9.53;8.53;;;22.00;64.50;;;;;;4988986;28;20459;-82
2023/04/21 10:09:55;;;;;;;8.40;7.70;;;21.20;65.10;;;;;;5000583;28;20513;-84
2023/04/21 10:12:22;;;;;;;7.90;7.20;;;21.20;68.00;;;;;;4974864;28;20216;-82
2023/04/21 10:14:52;;;;;;;8.20;7.50;;;21.50;67.40;;;;;;4997558;28;20836;-83
2023/04/21 10:17:23;;;;;;;9.27;8.37;;;22.30;67.20;;;;;;5000926;28;20446;-81
2023/04/21 10:19:57;;;;;;;7.05;6.45;;;21.30;66.90;;;;;;4977266;28;20486;-81
2023/04/21 10:22:34;;;;;;;6.55;5.97;;;21.10;68.60;;;;;;4994584;28;20214;-82
2023/04/21 10:25:02;;;;;;;6.80;6.20;;;20.80;68.70;;;;;;4981874;28;20811;-82
2023/04/21 10:27:36;;;;;;;7.03;6.43;;;20.80;71.70;;;;;;4976203;28;20207;-83
2023/04/21 10:30:21;;;;;;;7.15;6.55;;;20.40;69.50;;;;;;4973770;28;20207;-82
2023/04/21 10:32:47;;;;;;;7.05;6.35;;;20.00;72.00;;;;;;4989191;28;20221;-84
2023/04/21 10:35:16;;;;;;;8.20;6.80;;;21.00;71.60;;;;;;4975014;28;20183;-86
2023/04/21 10:37:42;;;;;;;9.23;6.50;;;20.90;70.40;;;;;;4985377;28;20215;-84
2023/04/21 10:40:35;;;;;;;6.80;6.20;;;20.90;70.20;;;;;;4973783;28;20528;-84
2023/04/21 10:43:04;;;;;;;6.90;6.30;;;21.00;70.90;;;;;;4974068;28;21691;-85
2023/04/21 10:45:31;;;;;;;7.07;6.38;;;20.50;71.90;;;;;;4975286;28;20188;-84
2023/04/21 10:48:00;;;;;;;8.85;6.93;;;20.80;71.40;;;;;;4997128;28;20189;-85
2023/04/21 10:50:30;;;;;;;8.18;7.40;;;21.50;69.70;;;;;;4988610;28;20440;-86
2023/04/21 10:53:10;;;;;;;8.80;8.00;;;21.70;68.00;;;;;;4972478;28;20207;-87
2023/04/21 10:55:35;;;;;;;8.73;7.93;;;21.50;69.20;;;;;;4992731;28;20816;-85
2023/04/21 10:58:03;;;;;;;8.73;7.97;;;22.00;70.60;;;;;;4990430;28;20442;-87
2023/04/21 11:00:30;;;;;;;9.10;8.20;;;21.40;69.90;;;;;;4971183;28;20569;-88
2023/04/21 11:03:01;;;;;;;7.60;7.00;;;21.80;70.50;;;;;;4973210;28;20514;-88
2023/04/21 11:05:38;;;;;;;10.63;9.73;;;22.10;70.20;;;;;;4976513;28;20510;-89
2023/04/21 11:08:08;;;;;;;9.23;8.33;;;22.10;68.70;;;;;;4992693;28;20446;-87
2023/04/21 11:10:49;;;;;;;10.30;9.23;;;21.50;69.50;;;;;;4969536;28;20466;-89
2023/04/21 11:13:15;;;;;;;9.40;8.50;;;20.90;71.30;;;;;;4975372;28;20474;-87
2023/04/21 11:15:41;;;;;;;9.65;8.25;;;20.80;72.50;;;;;;4960608;28;20450;-90
2023/04/21 11:18:08;;;;;;;8.90;8.10;;;21.00;73.40;;;;;;4970792;28;20211;-87
2023/04/21 11:20:34;;;;;;;8.30;7.50;;;;;;;;;;4960172;28;20191;-87
2023/04/21 11:23:00;;;;;;;7.75;7.05;;;20.70;73.40;;;;;;4972850;28;20195;-85
2023/04/21 11:26:09;;;;;;;8.90;8.10;;;20.80;74.60;;;;;;4975389;28;20263;-82
2023/04/21 11:28:35;;;;;;;15.07;13.52;;;20.20;76.10;;;;;;5003034;28;20235;-84
2023/04/21 11:31:00;;;;;;;7.90;7.20;;;20.50;75.80;;;;;;4985711;28;20726;-83
2023/04/21 11:33:29;;;;;;;10.17;8.43;;;21.00;75.70;;;;;;5004654;28;20546;-83
2023/04/21 11:35:57;;;;;;;8.02;7.32;;;21.60;76.30;;;;;;4980055;28;20215;-85
2023/04/21 11:38:23;;;;;;;8.30;7.50;;;21.20;73.90;;;;;;5003853;28;20283;-87
2023/04/21 11:40:50;;;;;;;7.20;6.60;;;21.30;74.20;;;;;;4990890;28;20540;-85
2023/04/21 11:43:16;;;;;;;9.33;7.77;;;21.70;73.90;;;;;;4984366;28;20811;-82
2023/04/21 11:45:41;;;;;;;7.93;7.27;;;21.20;74.80;;;;;;4985965;28;20451;-83
2023/04/21 11:48:18;;;;;;;7.63;6.87;;;21.10;76.00;;;;;;4989334;28;20188;-84
2023/04/21 11:50:50;;;;;;;7.65;6.93;;;20.30;75.60;;;;;;4985009;28;20196;-83
2023/04/21 11:53:16;;;;;;;6.32;5.72;;;20.50;76.70;;;;;;5001795;28;20192;-83
2023/04/21 11:55:43;;;;;;;7.90;7.20;;;20.60;77.80;;;;;;4985441;28;20175;-83
2023/04/21 11:58:09;;;;;;;7.38;6.65;;;20.90;77.20;;;;;;4998812;28;20187;-83
2023/04/21 12:00:35;;;;;;;7.93;7.22;;;21.70;78.80;;;;;;4984958;28;20194;-83
2023/04/21 12:03:00;;;;;;;7.00;6.40;;;20.90;76.90;;;;;;4985561;28;20179;-82
2023/04/21 12:05:34;;;;;;;6.90;6.20;;;20.40;78.20;;;;;;4985135;28;20188;-82
2023/04/21 12:08:00;;;;;;;7.22;6.57;;;20.30;79.00;;;;;;4981218;28;20187;-83
2023/04/21 12:10:28;;;;;;;7.03;6.32;;;19.90;79.80;;;;;;4994745;28;20215;-84
2023/04/21 12:12:55;;;;;;;8.30;7.10;;;19.70;81.40;;;;;;4979552;28;20196;-84
2023/04/21 12:15:22;;;;;;;8.43;7.65;;;19.30;82.00;;;;;;4976263;28;20660;-83
2023/04/21 12:17:51;;;;;;;7.50;6.80;;;19.10;82.40;;;;;;4981217;28;20188;-84
2023/04/21 12:20:22;;;;;;;6.80;6.15;;;18.90;82.90;;;;;;4983566;28;20288;-84
2023/04/21 12:22:49;;;;;;;7.63;6.80;;;18.90;83.20;;;;;;4979440;28;20207;-83
2023/04/21 12:25:14;;;;;;;8.32;7.53;;;19.10;85.20;;;;;;4979069;28;20191;-83
2023/04/21 12:27:56;;;;;;;7.10;6.50;;;19.70;87.00;;;;;;4982925;28;20191;-84
2023/04/21 12:30:21;;;;;;;6.80;6.20;;;18.90;83.50;;;;;;4992918;28;20203;-84
2023/04/21 12:32:47;;;;;;;10.50;6.90;;;19.10;84.20;;;;;;4975972;28;20207;-83
2023/04/21 12:35:15;;;;;;;6.80;6.20;;;19.20;84.90;;;;;;4997646;28;20183;-84
2023/04/21 12:37:40;;;;;;;7.05;6.45;;;19.20;85.90;;;;;;4980733;28;20454;-83